createdAt,value
2022-09-20T00:00:48.902Z,100.00
2022-09-20T00:03:16.956Z,100.00
2022-09-20T00:05:45.645Z,100.00
2022-09-20T00:08:16.261Z,100.00
2022-09-20T00:10:43.400Z,100.00
2022-09-20T00:13:12.495Z,100.00
2022-09-20T00:15:46.435Z,100.00
2022-09-20T00:18:13.766Z,100.00
2022-09-20T00:20:48.864Z,100.00
2022-09-20T00:23:15.822Z,100.00
2022-09-20T00:25:42.688Z,100.00
2022-09-20T00:28:10.706Z,100.00
2022-09-20T00:30:38.492Z,100.00
2022-09-20T00:33:05.253Z,100.00
2022-09-20T00:35:31.985Z,100.00
2022-09-20T00:37:58.522Z,100.00
2022-09-20T00:40:27.258Z,100.00
2022-09-20T00:42:53.959Z,100.00
2022-09-20T00:45:28.101Z,100.00
2022-09-20T00:48:03.892Z,100.00
2022-09-20T00:50:44.836Z,100.00
2022-09-20T00:53:26.651Z,100.00
2022-09-20T00:55:58.975Z,100.00
2022-09-20T00:58:27.508Z,100.00
2022-09-20T01:00:56.807Z,100.00
2022-09-20T01:03:27.728Z,100.00
2022-09-20T01:05:55.928Z,100.00
2022-09-20T01:08:25.321Z,100.00
2022-09-20T01:10:52.736Z,100.00
2022-09-20T01:13:19.306Z,100.00
2022-09-20T01:15:48.385Z,100.00
2022-09-20T01:18:16.658Z,100.00
2022-09-20T01:20:46.244Z,100.00
2022-09-20T01:23:35.114Z,100.00
2022-09-20T01:26:30.890Z,100.00
2022-09-20T01:29:29.714Z,100.00
2022-09-20T01:32:01.845Z,100.00
2022-09-20T01:34:32.932Z,100.00
2022-09-20T01:37:07.421Z,100.00
2022-09-20T01:39:52.381Z,100.00
2022-09-20T01:42:20.749Z,100.00
2022-09-20T01:45:05.532Z,100.00
2022-09-20T01:47:32.502Z,100.00
2022-09-20T01:50:07.543Z,100.00
2022-09-20T01:52:52.906Z,100.00
2022-09-20T01:55:38.181Z,100.00
2022-09-20T01:58:27.416Z,100.00
2022-09-20T02:01:16.114Z,100.00
2022-09-20T02:03:52.795Z,100.00
2022-09-20T02:06:39.407Z,100.00
2022-09-20T02:09:39.521Z,100.00
2022-09-20T02:12:24.654Z,100.00
2022-09-20T02:15:08.508Z,100.00
2022-09-20T02:18:07.608Z,100.00
2022-09-20T02:21:17.431Z,100.00
2022-09-20T02:24:17.168Z,100.00
2022-09-20T02:27:05.481Z,100.00
2022-09-20T02:29:53.162Z,100.00
2022-09-20T02:32:51.051Z,100.00
2022-09-20T02:35:56.245Z,100.00
2022-09-20T02:38:33.440Z,100.00
2022-09-20T02:41:37.570Z,100.00
2022-09-20T02:44:27.488Z,100.00
2022-09-20T02:47:21.575Z,100.00
2022-09-20T02:50:05.741Z,100.00
2022-09-20T02:52:58.671Z,100.00
2022-09-20T02:55:54.487Z,100.00
2022-09-20T02:58:46.586Z,100.00
2022-09-20T03:01:22.287Z,100.00
2022-09-20T03:04:10.829Z,100.00
2022-09-20T03:07:15.718Z,100.00
2022-09-20T03:09:52.289Z,100.00
2022-09-20T03:12:46.720Z,100.00
2022-09-20T03:15:44.221Z,100.00
2022-09-20T03:18:25.322Z,100.00
2022-09-20T03:21:09.466Z,100.00
2022-09-20T03:24:17.218Z,100.00
2022-09-20T03:27:02.057Z,100.00
2022-09-20T03:29:55.915Z,100.00
2022-09-20T03:32:40.727Z,100.00
2022-09-20T03:35:22.035Z,100.00
2022-09-20T03:37:54.571Z,100.00
2022-09-20T03:41:01.819Z,100.00
2022-09-20T03:43:49.823Z,100.00
2022-09-20T03:46:27.277Z,100.00
2022-09-20T03:49:07.513Z,100.00
2022-09-20T03:52:05.820Z,100.00
2022-09-20T03:54:44.574Z,100.00
2022-09-20T03:57:29.705Z,100.00
2022-09-20T04:00:03.090Z,100.00
2022-09-20T04:02:48.375Z,100.00
2022-09-20T04:05:47.996Z,100.00
2022-09-20T04:08:35.720Z,100.00
2022-09-20T04:11:32.393Z,100.00
2022-09-20T04:14:22.153Z,100.00
2022-09-20T04:17:03.558Z,100.00
2022-09-20T04:19:38.236Z,100.00
2022-09-20T04:22:05.694Z,100.00
2022-09-20T04:24:40.374Z,100.00
2022-09-20T04:27:23.174Z,100.00
2022-09-20T04:30:17.455Z,100.00
2022-09-20T04:33:02.274Z,100.00
2022-09-20T04:36:25.207Z,100.00
2022-09-20T04:39:13.764Z,100.00
2022-09-20T04:42:09.874Z,100.00
2022-09-20T04:44:39.207Z,100.00
2022-09-20T04:47:18.558Z,100.00
2022-09-20T04:50:22.605Z,100.00
2022-09-20T04:53:15.829Z,100.00
2022-09-20T04:55:57.633Z,100.00
2022-09-20T04:58:54.386Z,100.00
2022-09-20T05:02:03.823Z,100.00
2022-09-20T05:05:07.381Z,100.00
2022-09-20T05:08:16.455Z,100.00
2022-09-20T05:11:01.983Z,100.00
2022-09-20T05:13:46.645Z,100.00
2022-09-20T05:16:28.541Z,100.00
2022-09-20T05:19:23.843Z,100.00
2022-09-20T05:22:02.871Z,100.00
2022-09-20T05:24:42.817Z,100.00
2022-09-20T05:27:40.888Z,100.00
2022-09-20T05:30:38.003Z,100.00
2022-09-20T05:33:18.379Z,100.00
2022-09-20T05:36:10.134Z,100.00
2022-09-20T05:38:58.063Z,100.00
2022-09-20T05:41:52.211Z,100.00
2022-09-20T05:44:57.811Z,100.00
2022-09-20T05:47:42.448Z,100.00
2022-09-20T05:50:45.888Z,100.00
2022-09-20T05:53:24.728Z,100.00
2022-09-20T05:56:19.989Z,100.00
2022-09-20T05:59:14.256Z,100.00
2022-09-20T06:01:50.051Z,100.00
2022-09-20T06:05:07.945Z,100.00
2022-09-20T06:07:58.543Z,100.00
2022-09-20T06:10:37.307Z,100.00
2022-09-20T06:13:31.747Z,100.00
2022-09-20T06:16:01.918Z,100.00
2022-09-20T06:18:50.408Z,100.00
2022-09-20T06:21:42.071Z,100.00
2022-09-20T06:24:43.356Z,100.00
2022-09-20T06:27:19.517Z,100.00
2022-09-20T06:29:55.198Z,100.00
2022-09-20T06:32:21.754Z,100.00
2022-09-20T06:34:49.141Z,100.00
2022-09-20T06:37:53.705Z,100.00
2022-09-20T06:40:46.786Z,100.00
2022-09-20T06:43:14.556Z,100.00
2022-09-20T06:45:43.142Z,100.00
2022-09-20T06:48:11.936Z,100.00
2022-09-20T06:50:39.201Z,100.00
2022-09-20T06:53:06.774Z,100.00
2022-09-20T06:55:40.145Z,100.00
2022-09-20T06:58:06.767Z,100.00
2022-09-20T07:00:33.521Z,100.00
2022-09-20T07:03:00.090Z,100.00
2022-09-20T07:05:26.808Z,100.00
2022-09-20T07:08:01.240Z,100.00
2022-09-20T07:10:28.710Z,100.00
2022-09-20T07:13:00.518Z,100.00
2022-09-20T07:15:32.793Z,100.00
2022-09-20T07:18:00.442Z,100.00
2022-09-20T07:20:27.819Z,100.00
2022-09-20T07:22:54.532Z,100.00
2022-09-20T07:25:21.809Z,100.00
2022-09-20T07:27:50.800Z,100.00
2022-09-20T07:30:19.776Z,100.00
2022-09-20T07:32:46.420Z,100.00
2022-09-20T07:35:13.366Z,100.00
2022-09-20T07:37:43.805Z,100.00
2022-09-20T07:40:11.862Z,100.00
2022-09-20T07:42:38.806Z,100.00
2022-09-20T07:45:06.004Z,100.00
2022-09-20T07:47:33.622Z,100.00
2022-09-20T07:50:00.215Z,100.00
2022-09-20T07:52:26.887Z,100.00
2022-09-20T07:54:53.953Z,100.00
2022-09-20T07:57:20.599Z,100.00
2022-09-20T07:59:47.260Z,100.00
2022-09-20T08:02:15.309Z,100.00
2022-09-20T08:04:42.092Z,100.00
2022-09-20T08:07:08.862Z,100.00
2022-09-20T08:09:35.651Z,100.00
2022-09-20T08:14:49.404Z,100.00
2022-09-20T08:17:16.473Z,100.00
2022-09-20T08:19:44.710Z,100.00
2022-09-20T08:22:12.842Z,100.00
2022-09-20T08:24:39.660Z,100.00
2022-09-20T08:27:06.346Z,100.00
2022-09-20T08:29:32.932Z,100.00
2022-09-20T08:32:02.255Z,100.00
2022-09-20T08:34:29.393Z,100.00
2022-09-20T08:36:56.722Z,100.00
2022-09-20T08:42:14.910Z,100.00
2022-09-20T08:45:00.426Z,100.00
2022-09-20T08:47:31.047Z,100.00
2022-09-20T08:49:59.088Z,99.52
2022-09-20T08:52:36.182Z,100.00
2022-09-20T08:55:13.888Z,100.00
2022-09-20T08:57:40.644Z,100.00
2022-09-20T09:00:17.596Z,100.00
2022-09-20T09:02:44.774Z,100.00
2022-09-20T09:05:34.377Z,100.00
2022-09-20T09:08:06.702Z,100.00
2022-09-20T09:10:45.115Z,100.00
2022-09-20T09:13:23.772Z,97.43
2022-09-20T09:15:58.129Z,95.92
2022-09-20T09:18:31.959Z,95.42
2022-09-20T09:20:59.677Z,94.67
2022-09-20T09:23:28.069Z,93.63
2022-09-20T09:25:56.310Z,93.28
2022-09-20T09:28:25.635Z,94.22
2022-09-20T09:30:52.352Z,95.53
2022-09-20T09:33:25.824Z,96.97
2022-09-20T09:36:15.184Z,95.94
2022-09-20T09:38:47.755Z,91.84
2022-09-20T09:41:29.879Z,90.03
2022-09-20T09:44:10.091Z,88.03
2022-09-20T09:46:40.162Z,86.58
2022-09-20T09:49:18.267Z,86.04
2022-09-20T09:52:06.866Z,84.74
2022-09-20T09:54:44.651Z,85.09
2022-09-20T09:57:36.097Z,85.47
2022-09-20T10:00:20.646Z,86.27
2022-09-20T10:03:00.973Z,87.85
2022-09-20T10:05:39.501Z,89.65
2022-09-20T10:08:30.290Z,88.83
2022-09-20T10:11:01.684Z,89.30
2022-09-20T10:13:40.856Z,87.97
2022-09-20T10:16:25.854Z,85.17
2022-09-20T10:19:01.651Z,82.57
2022-09-20T10:21:44.515Z,78.48
2022-09-20T10:24:11.068Z,80.49
2022-09-20T10:27:02.291Z,82.64
2022-09-20T10:30:24.219Z,82.33
2022-09-20T10:32:59.624Z,78.61
2022-09-20T10:35:56.589Z,76.73
2022-09-20T10:38:38.223Z,73.08
2022-09-20T10:41:35.944Z,71.96
2022-09-20T10:44:20.815Z,71.07
2022-09-20T10:47:06.893Z,67.88
2022-09-20T10:50:05.169Z,72.04
2022-09-20T10:52:57.713Z,77.94
2022-09-20T10:55:36.778Z,81.17
2022-09-20T10:58:31.166Z,81.68
2022-09-20T11:01:09.893Z,86.51
2022-09-20T11:03:57.990Z,91.38
2022-09-20T11:06:29.640Z,90.65
2022-09-20T11:09:00.272Z,89.31
2022-09-20T11:11:44.058Z,88.17
2022-09-20T11:14:21.704Z,83.59
2022-09-20T11:17:12.102Z,79.50
2022-09-20T11:19:48.620Z,79.02
2022-09-20T11:22:21.709Z,76.41
2022-09-20T11:25:04.405Z,73.11
2022-09-20T11:27:39.950Z,70.13
2022-09-20T11:30:16.970Z,70.78
2022-09-20T11:32:50.126Z,74.08
2022-09-20T11:35:33.032Z,79.92
2022-09-20T11:38:05.393Z,88.17
2022-09-20T11:40:37.157Z,89.04
2022-09-20T11:43:06.578Z,89.23
2022-09-20T11:45:34.489Z,88.91
2022-09-20T11:48:16.438Z,90.28
2022-09-20T11:51:22.450Z,92.03
2022-09-20T11:54:01.967Z,92.09
2022-09-20T11:56:32.309Z,92.97
2022-09-20T11:59:01.665Z,93.28
2022-09-20T12:01:29.946Z,93.93
2022-09-20T12:04:31.647Z,92.69
2022-09-20T12:07:23.054Z,93.09
2022-09-20T12:10:01.656Z,94.32
2022-09-20T12:12:38.013Z,95.39
2022-09-20T12:15:08.516Z,97.32
2022-09-20T12:17:47.057Z,100.00
2022-09-20T12:20:32.553Z,100.00
2022-09-20T12:23:36.738Z,100.00
2022-09-20T12:26:21.665Z,100.00
2022-09-20T12:29:00.197Z,100.00
2022-09-20T12:31:29.790Z,100.00
2022-09-20T12:34:11.950Z,100.00
2022-09-20T12:36:43.310Z,100.00
2022-09-20T12:39:15.167Z,100.00
2022-09-20T12:42:22.474Z,100.00
2022-09-20T12:44:48.971Z,100.00
2022-09-20T12:47:20.631Z,100.00
2022-09-20T12:50:05.866Z,100.00
2022-09-20T12:52:55.820Z,100.00
2022-09-20T12:55:27.646Z,100.00
2022-09-20T12:58:06.680Z,99.22
2022-09-20T13:00:34.645Z,92.97
2022-09-20T13:03:10.294Z,91.16
2022-09-20T13:05:40.391Z,89.59
2022-09-20T13:08:27.898Z,87.90
2022-09-20T13:11:17.318Z,87.04
2022-09-20T13:13:49.668Z,92.30
2022-09-20T13:16:49.926Z,94.45
2022-09-20T13:19:30.782Z,100.00
2022-09-20T13:22:03.314Z,100.00
2022-09-20T13:24:38.543Z,100.00
2022-09-20T13:27:19.323Z,100.00
2022-09-20T13:29:46.503Z,100.00
2022-09-20T13:32:23.819Z,100.00
2022-09-20T13:35:16.923Z,100.00
2022-09-20T13:37:54.212Z,100.00
2022-09-20T13:40:24.207Z,100.00
2022-09-20T13:43:13.023Z,100.00
2022-09-20T13:45:42.954Z,100.00
2022-09-20T13:48:10.015Z,100.00
2022-09-20T13:50:40.079Z,100.00
2022-09-20T13:53:39.405Z,100.00
2022-09-20T13:56:12.068Z,100.00
2022-09-20T13:58:38.882Z,100.00
2022-09-20T14:01:09.842Z,95.18
2022-09-20T14:03:36.787Z,94.49
2022-09-20T14:06:13.617Z,94.57
2022-09-20T14:08:49.906Z,96.48
2022-09-20T14:11:19.867Z,97.05
2022-09-20T14:13:58.185Z,95.69
2022-09-20T14:16:31.334Z,90.91
2022-09-20T14:18:59.317Z,96.60
2022-09-20T14:21:29.119Z,100.00
2022-09-20T14:24:27.630Z,100.00
2022-09-20T14:27:03.051Z,100.00
2022-09-20T14:29:43.452Z,100.00
2022-09-20T14:32:19.207Z,100.00
2022-09-20T14:34:51.866Z,100.00
2022-09-20T14:37:25.594Z,100.00
2022-09-20T14:39:58.268Z,100.00
2022-09-20T14:42:42.476Z,100.00
2022-09-20T14:45:23.489Z,100.00
2022-09-20T14:47:55.891Z,100.00
2022-09-20T14:50:29.159Z,100.00
2022-09-20T14:53:13.846Z,100.00
2022-09-20T14:56:01.875Z,100.00
2022-09-20T14:58:28.780Z,100.00
2022-09-20T15:01:02.971Z,100.00
2022-09-20T15:03:34.275Z,100.00
2022-09-20T15:06:01.178Z,100.00
2022-09-20T15:08:28.138Z,99.77
2022-09-20T15:10:54.971Z,100.00
2022-09-20T15:13:21.869Z,100.00
2022-09-20T15:15:53.914Z,100.00
2022-09-20T15:18:27.407Z,100.00
2022-09-20T15:20:55.386Z,100.00
2022-09-20T15:23:22.324Z,100.00
2022-09-20T15:25:53.772Z,100.00
2022-09-20T15:28:21.293Z,100.00
2022-09-20T15:30:52.670Z,100.00
2022-09-20T15:33:21.646Z,99.60
2022-09-20T15:35:49.152Z,99.64
2022-09-20T15:38:18.560Z,99.47
2022-09-20T15:40:48.175Z,100.00
2022-09-20T15:43:17.936Z,100.00
2022-09-20T15:45:52.863Z,99.68
2022-09-20T15:48:21.717Z,99.99
2022-09-20T15:51:06.947Z,95.44
2022-09-20T15:53:36.172Z,98.10
2022-09-20T15:56:05.550Z,100.00
2022-09-20T15:58:36.229Z,100.00
2022-09-20T16:01:08.289Z,98.13
2022-09-20T16:03:36.346Z,98.66
2022-09-20T16:06:06.319Z,98.37
2022-09-20T16:08:38.370Z,100.00
2022-09-20T16:11:06.935Z,99.25
2022-09-20T16:13:33.588Z,100.00
2022-09-20T16:16:01.358Z,100.00
2022-09-20T16:18:47.705Z,100.00
2022-09-20T16:21:16.871Z,100.00
2022-09-20T16:23:51.393Z,99.27
2022-09-20T16:26:19.750Z,100.00
2022-09-20T16:28:47.728Z,100.00
2022-09-20T16:31:40.120Z,99.33
2022-09-20T16:34:12.675Z,99.47
2022-09-20T16:36:41.779Z,100.00
2022-09-20T16:39:08.740Z,100.00
2022-09-20T16:41:36.530Z,100.00
2022-09-20T16:44:03.341Z,100.00
2022-09-20T16:46:31.618Z,100.00
2022-09-20T16:49:01.118Z,100.00
2022-09-20T16:51:38.441Z,100.00
2022-09-20T16:54:13.143Z,100.00
2022-09-20T16:56:43.351Z,100.00
2022-09-20T16:59:10.973Z,100.00
2022-09-20T17:01:39.509Z,100.00
2022-09-20T17:04:07.851Z,100.00
2022-09-20T17:06:36.514Z,100.00
2022-09-20T17:09:05.018Z,100.00
2022-09-20T17:11:35.807Z,100.00
2022-09-20T17:14:02.962Z,100.00
2022-09-20T17:16:31.859Z,100.00
2022-09-20T17:19:07.505Z,100.00
2022-09-20T17:21:36.243Z,100.00
2022-09-20T17:24:04.421Z,100.00
2022-09-20T17:26:36.929Z,100.00
2022-09-20T17:29:05.866Z,100.00
2022-09-20T17:31:38.074Z,100.00
2022-09-20T17:34:07.852Z,100.00
2022-09-20T17:36:38.269Z,100.00
2022-09-20T17:39:05.441Z,100.00
2022-09-20T17:41:33.885Z,100.00
2022-09-20T17:44:02.887Z,100.00
2022-09-20T17:46:31.915Z,100.00
2022-09-20T17:49:03.884Z,100.00
2022-09-20T17:51:33.362Z,100.00
2022-09-20T17:54:01.530Z,100.00
2022-09-20T17:56:29.639Z,100.00
2022-09-20T17:58:57.632Z,100.00
2022-09-20T18:01:26.342Z,100.00
2022-09-20T18:03:54.365Z,100.00
2022-09-20T18:06:24.197Z,100.00
2022-09-20T18:08:53.601Z,100.00
2022-09-20T18:11:23.568Z,100.00
2022-09-20T18:13:50.133Z,100.00
2022-09-20T18:16:18.089Z,100.00
2022-09-20T18:18:46.378Z,100.00
2022-09-20T18:21:21.342Z,100.00
2022-09-20T18:23:49.419Z,100.00
2022-09-20T18:26:24.634Z,100.00
2022-09-20T18:29:01.693Z,100.00
2022-09-20T18:31:32.611Z,100.00
2022-09-20T18:34:01.194Z,100.00
2022-09-20T18:36:30.302Z,100.00
2022-09-20T18:38:58.320Z,100.00
2022-09-20T18:41:31.431Z,100.00
2022-09-20T18:43:58.543Z,100.00
2022-09-20T18:46:27.065Z,100.00
2022-09-20T18:48:55.353Z,100.00
2022-09-20T18:51:22.245Z,100.00
2022-09-20T18:53:49.058Z,100.00
2022-09-20T18:56:25.994Z,100.00
2022-09-20T18:58:57.212Z,100.00
2022-09-20T19:01:49.070Z,100.00
2022-09-20T19:04:43.643Z,100.00
2022-09-20T19:07:28.229Z,100.00
2022-09-20T19:10:26.544Z,100.00
2022-09-20T19:12:59.339Z,100.00
2022-09-20T19:16:03.058Z,100.00
2022-09-20T19:19:07.491Z,100.00
2022-09-20T19:21:58.753Z,100.00
2022-09-20T19:24:56.926Z,100.00
2022-09-20T19:27:24.554Z,100.00
2022-09-20T19:29:51.513Z,100.00
2022-09-20T19:32:21.354Z,100.00
2022-09-20T19:34:53.145Z,100.00
2022-09-20T19:37:47.442Z,100.00
2022-09-20T19:40:37.105Z,100.00
2022-09-20T19:43:03.867Z,100.00
2022-09-20T19:46:13.501Z,100.00
2022-09-20T19:48:48.410Z,100.00
2022-09-20T19:51:17.244Z,100.00
2022-09-20T19:53:44.140Z,100.00
2022-09-20T19:56:16.704Z,100.00
2022-09-20T19:58:45.068Z,100.00
2022-09-20T20:01:12.034Z,100.00
2022-09-20T20:03:39.351Z,100.00
2022-09-20T20:06:26.680Z,100.00
2022-09-20T20:09:03.836Z,100.00
2022-09-20T20:11:41.251Z,100.00
2022-09-20T20:14:21.053Z,100.00
2022-09-20T20:17:05.969Z,100.00
2022-09-20T20:20:00.836Z,100.00
2022-09-20T20:22:59.362Z,100.00
2022-09-20T20:25:41.506Z,100.00
2022-09-20T20:28:09.317Z,100.00
2022-09-20T20:30:36.157Z,100.00
2022-09-20T20:33:05.226Z,100.00
2022-09-20T20:35:32.273Z,100.00
2022-09-20T20:37:58.964Z,100.00
2022-09-20T20:40:25.492Z,100.00
2022-09-20T20:43:02.104Z,100.00
2022-09-20T20:45:29.681Z,100.00
2022-09-20T20:47:58.832Z,100.00
2022-09-20T20:50:27.104Z,100.00
2022-09-20T20:52:57.334Z,100.00
2022-09-20T20:55:24.739Z,100.00
2022-09-20T20:57:58.360Z,100.00
2022-09-20T21:00:26.368Z,100.00
2022-09-20T21:03:02.815Z,100.00
2022-09-20T21:05:29.295Z,100.00
2022-09-20T21:07:57.913Z,100.00
2022-09-20T21:10:24.704Z,100.00
2022-09-20T21:12:54.718Z,100.00
2022-09-20T21:15:21.589Z,100.00
2022-09-20T21:17:52.612Z,100.00
2022-09-20T21:20:20.294Z,100.00
2022-09-20T21:22:47.007Z,100.00
2022-09-20T21:25:13.737Z,100.00
2022-09-20T21:27:40.420Z,100.00
2022-09-20T21:30:07.729Z,100.00
2022-09-20T21:32:34.913Z,100.00
2022-09-20T21:35:01.479Z,100.00
2022-09-20T21:37:28.011Z,100.00
2022-09-20T21:39:54.767Z,100.00
2022-09-20T21:42:21.349Z,100.00
2022-09-20T21:44:47.897Z,100.00
2022-09-20T21:47:20.262Z,100.00
2022-09-20T21:49:47.688Z,100.00
2022-09-20T21:52:14.658Z,100.00
2022-09-20T21:54:41.313Z,100.00
2022-09-20T21:57:08.098Z,100.00
2022-09-20T21:59:34.665Z,100.00
2022-09-20T22:02:01.202Z,100.00
2022-09-20T22:04:29.299Z,100.00
2022-09-20T22:06:56.035Z,100.00
2022-09-20T22:09:24.300Z,100.00
2022-09-20T22:11:50.975Z,100.00
2022-09-20T22:14:19.812Z,100.00
2022-09-20T22:16:48.510Z,100.00
2022-09-20T22:19:17.151Z,100.00
2022-09-20T22:21:46.658Z,100.00
2022-09-20T22:24:14.834Z,100.00
2022-09-20T22:26:44.182Z,100.00
2022-09-20T22:29:11.042Z,100.00
2022-09-20T22:31:45.716Z,100.00
2022-09-20T22:34:21.013Z,100.00
2022-09-20T22:36:48.296Z,100.00
2022-09-20T22:39:15.564Z,100.00
2022-09-20T22:41:43.307Z,100.00
2022-09-20T22:44:10.832Z,100.00
2022-09-20T22:46:38.625Z,100.00
2022-09-20T22:49:07.341Z,100.00
2022-09-20T22:51:34.730Z,100.00
2022-09-20T22:54:07.099Z,100.00
2022-09-20T22:56:34.637Z,100.00
2022-09-20T22:59:06.250Z,100.00
2022-09-20T23:01:35.933Z,100.00
2022-09-20T23:04:08.418Z,100.00
2022-09-20T23:06:40.844Z,100.00
2022-09-20T23:09:10.045Z,100.00
2022-09-20T23:11:37.852Z,100.00
2022-09-20T23:14:06.118Z,100.00
2022-09-20T23:16:35.345Z,100.00
2022-09-20T23:19:03.491Z,100.00
2022-09-20T23:21:30.804Z,100.00
2022-09-20T23:23:59.933Z,100.00
2022-09-20T23:26:28.081Z,100.00
2022-09-20T23:28:57.122Z,100.00
2022-09-20T23:31:24.577Z,100.00
2022-09-20T23:33:57.304Z,100.00
2022-09-20T23:36:25.300Z,100.00
2022-09-20T23:38:51.881Z,100.00
2022-09-20T23:41:21.414Z,100.00
2022-09-20T23:43:48.827Z,100.00
2022-09-20T23:46:17.440Z,100.00
2022-09-20T23:48:44.310Z,100.00
2022-09-20T23:51:13.468Z,100.00
2022-09-20T23:53:40.676Z,100.00
2022-09-20T23:56:08.248Z,100.00
2022-09-20T23:58:37.250Z,100.00
